Fairchild, Wisconsin
Current Conditions -  °F | °C
As of 11:35 AM on Friday 31 Oct 2014 (Local Time) from KBCK Reporting Station
Overcast Overcast  
Wind Chill: 27°   Ceiling: 3600
Heat Index: 36°   Visibility: 10mi
Dew Point: 20°   Wind: 13mph
Humidity: 53%   Direction: 350°N
Pressure: 30.45"   Gusts: 25mph
Location:  44.6°N, 90.96°W
Report Text: KBCK 311635Z AUTO 35011G22KT 10SM BKN036 OVC043 02/M07 A3045 RMK AO2 T00201067
Loading
Personal Weather Stations






























Interactive Weather Map
Tropical Storm Tracking
New forecast layout! Learn more

10-Day Weather Forecast

Advertisements
Track Severe Weather on mobile